Andes, NY (13731)

7:54 PM EDT on August 25, 2016 (GMT -0400)
andes ny | | Change Station

Elev 1882 ft 42.18 °N, 74.83 °W | Updated 11 minutes ago

Overcast
Overcast
70.2 °F
Feels Like 70.2 °F
N
0.0
Wind Variable Wind from ENE
Gusts 2.0 mph

Today
High -- | Low -- °F
--% Chance of Precip.
Yesterday
High -- | Low -- °F
Precip. -- in
Pressure 30.06 in
Visibility 10.0 miles
Clouds Overcast 1300 ft
Dew Point 68 °F
Humidity 92%
Rainfall 0.02 in
Snow Depth Not available.
6:17 AM 7:43 PM
Last Quarter, 41% visible
METAR KMSV 252335Z AUTO 00000KT 10SM OVC013 22/21 A3006 RMK AO1
Pressure 30.06 in
Visibility 10.0 miles
Clouds Overcast 1300 ft
Dew Point 68 °F
Humidity 92%
Rainfall 0.02 in
Snow Depth Not available.
6:17 AM 7:43 PM
Last Quarter, 41% visible
METAR KMSV 252335Z AUTO 00000KT 10SM OVC013 22/21 A3006 RMK AO1
A tropical disturbance pushing toward the Bahamas, is expected to develop into a tropical depression or storm, and will likely target Florida and the Gulf Coast this weekend into next week.

Right now, the disturbance remains a broad area of low pressure pushing through the Dominican Republic and Haiti, headed toward the southeast Bahamas. Rainfall totals over 3 inches (with locally higher amounts) are expected in HispaƱiola, particularly over elevated terrain.

10-Day Weather Forecast

Almanac

Astronomy

Aug. 25, 2016 Rise Set
Actual Time
Civil Twilight
Nautical Twilight
Astronomical Twilight
Moon
Length of Visible Light
Length of Day
Tomorrow will be .
, % of the Moon is Illuminated

Today's Extremes

State Highs State Lows

Community

WunderPhotos

Upload Photos

1,934,967 photos uploaded!

WunderBlog® & News

Nearby

Air Quality

  Air Quality AQ Index Pollutant
Not available.

Snow Depth

Station Depth Elevation

Earthquake Activity

City Distance Mag. Time & Date
Minimum magnitude displayed is 2.5.

Coastal Water Temperatures

Place Temperature

Stations

Nearby Weather Stations

Station Location Temp. Windchill Dew Point Humidity Wind Precip. Elev Updated Type
                   

Watches & Warnings

There are currently no watches in effect.